Weather at Santo Tome Del Puerto Airport

Public forecast

Using degrees Celsius for public forecast. Weather courtesy of forecast.io.

Closest aviation weather report (METAR) to Santo Tome Del Puerto Airport

Closest report is Madrid–Torrejón Airport / Torrejón Air Base, 43.5 nm (80.5 km) S. Retrieved 2021/04/11 12:30 UTC (23 minutes ago):

LETO 111230Z 14003KT 050V210 9999 VCSH SCT030TCU BKN040 15/09 Q1013 TEMPO SHRA

Closest aviation forecast (TAF) to Santo Tome Del Puerto Airport

Closest forecast is Base Aérea de Colmenar Viejo, 31.4 nm (58.1 km) SSW. Retrieved 2021/04/11 12:00 UTC (53 minutes ago):

TAF LECV 111100Z 1112/1212 VRB04KT 9999 SCT020 TX15/1116Z TN01/1206Z TEMPO 1112/1119 3000 RA SHRA BKN008 SCT015TCU PROB40 TEMPO 1112/1118 VRB15G25KT 2000 TSRA SCT030CB BECMG 1116/1118 03010KT